createdAt,value
2019-03-04T00:02:10.935Z,41.36
2019-03-04T00:04:37.868Z,41.58
2019-03-04T00:07:04.827Z,41.59
2019-03-04T00:09:31.787Z,41.52
2019-03-04T00:11:58.741Z,41.46
2019-03-04T00:14:25.749Z,41.54
2019-03-04T00:16:52.699Z,41.64
2019-03-04T00:19:19.647Z,41.64
2019-03-04T00:21:46.581Z,41.71
2019-03-04T00:24:13.552Z,41.90
2019-03-04T00:26:40.950Z,42.01
2019-03-04T00:29:08.370Z,42.05
2019-03-04T00:31:35.802Z,41.65
2019-03-04T00:34:03.263Z,41.59
2019-03-04T00:36:30.725Z,41.72
2019-03-04T00:38:58.223Z,42.23
2019-03-04T00:41:25.646Z,42.64
2019-03-04T00:43:53.058Z,42.88
2019-03-04T00:46:21.310Z,43.01
2019-03-04T00:48:48.735Z,43.09
2019-03-04T00:51:16.143Z,43.15
2019-03-04T00:53:43.585Z,43.09
2019-03-04T00:56:10.971Z,43.03
2019-03-04T00:58:38.392Z,43.00
2019-03-04T01:01:05.803Z,42.75
2019-03-04T01:03:33.208Z,42.48
2019-03-04T01:06:00.591Z,42.32
2019-03-04T01:08:28.023Z,42.16
2019-03-04T01:10:55.438Z,41.85
2019-03-04T01:13:22.847Z,41.74
2019-03-04T01:15:50.247Z,41.73
2019-03-04T01:18:17.648Z,41.54
2019-03-04T01:20:45.118Z,41.49
2019-03-04T01:23:12.525Z,41.06
2019-03-04T01:25:39.959Z,41.04
2019-03-04T01:28:07.577Z,41.02
2019-03-04T01:30:34.985Z,41.04
2019-03-04T01:33:02.390Z,41.08
2019-03-04T01:35:29.801Z,40.91
2019-03-04T01:37:57.188Z,40.65
2019-03-04T01:40:24.596Z,40.76
2019-03-04T01:42:52.023Z,40.76
2019-03-04T01:45:19.440Z,40.77
2019-03-04T01:47:46.830Z,40.81
2019-03-04T01:50:17.771Z,40.88
2019-03-04T01:52:45.175Z,41.04
2019-03-04T01:55:12.714Z,41.07
2019-03-04T01:57:40.115Z,40.89
2019-03-04T02:00:07.525Z,40.74
2019-03-04T02:02:34.956Z,40.55
2019-03-04T02:05:02.388Z,40.58
2019-03-04T02:07:30.576Z,40.49
2019-03-04T02:09:57.982Z,40.45
2019-03-04T02:12:25.390Z,40.35
2019-03-04T02:14:52.814Z,40.37
2019-03-04T02:17:20.206Z,40.37
2019-03-04T02:19:47.658Z,40.38
2019-03-04T02:22:15.068Z,40.40
2019-03-04T02:24:42.519Z,40.43
2019-03-04T02:27:09.921Z,40.38
2019-03-04T02:29:37.329Z,40.42
2019-03-04T02:32:04.728Z,40.51
2019-03-04T02:34:32.142Z,40.64
2019-03-04T02:36:59.566Z,40.55
2019-03-04T02:39:27.017Z,40.54
2019-03-04T02:41:54.425Z,40.63
2019-03-04T02:44:21.840Z,40.54
2019-03-04T02:46:49.289Z,40.56
2019-03-04T02:49:16.752Z,40.65
2019-03-04T02:51:44.178Z,40.75
2019-03-04T02:54:11.599Z,40.78
2019-03-04T02:56:39.021Z,40.78
2019-03-04T02:59:06.416Z,40.78
2019-03-04T03:01:33.823Z,40.55
2019-03-04T03:04:01.207Z,38.90
2019-03-04T03:06:28.734Z,38.26
2019-03-04T03:08:56.376Z,37.26
2019-03-04T03:11:23.770Z,36.58
2019-03-04T03:13:51.161Z,36.60
2019-03-04T03:16:18.558Z,36.32
2019-03-04T03:18:45.971Z,36.17
2019-03-04T03:21:13.389Z,35.60
2019-03-04T03:23:40.781Z,35.74
2019-03-04T03:26:07.812Z,35.48
2019-03-04T03:28:35.326Z,35.71
2019-03-04T03:31:02.286Z,35.99
2019-03-04T03:33:29.248Z,36.21
2019-03-04T03:35:56.248Z,37.08
2019-03-04T03:38:23.165Z,37.97
2019-03-04T03:40:50.183Z,37.82
2019-03-04T03:43:17.614Z,37.82
2019-03-04T03:45:45.090Z,38.04
2019-03-04T03:48:12.895Z,38.71
2019-03-04T03:50:40.297Z,39.31
2019-03-04T03:53:07.762Z,39.81
2019-03-04T03:55:35.947Z,39.34
2019-03-04T03:58:03.376Z,36.86
2019-03-04T04:00:30.778Z,35.18
2019-03-04T04:02:57.733Z,34.30
2019-03-04T04:05:25.050Z,33.52
2019-03-04T04:07:51.995Z,32.93
2019-03-04T04:10:18.989Z,32.57
2019-03-04T04:12:46.009Z,31.51
2019-03-04T04:15:13.001Z,31.10
2019-03-04T04:17:40.090Z,30.89
2019-03-04T04:20:07.076Z,30.73
2019-03-04T04:22:34.027Z,30.50
2019-03-04T04:25:00.965Z,30.58
2019-03-04T04:27:27.902Z,30.54
2019-03-04T04:29:54.882Z,30.24
2019-03-04T04:32:21.959Z,30.56
2019-03-04T04:34:48.921Z,30.77
2019-03-04T04:37:15.884Z,31.01
2019-03-04T04:39:43.031Z,31.21
2019-03-04T04:42:13.772Z,31.44
2019-03-04T04:44:40.695Z,31.71
2019-03-04T04:47:07.690Z,31.86
2019-03-04T04:49:34.691Z,32.02
2019-03-04T04:52:01.665Z,32.25
2019-03-04T04:54:28.598Z,32.43
2019-03-04T04:56:55.550Z,32.70
2019-03-04T04:59:22.561Z,32.84
2019-03-04T05:01:49.508Z,33.08
2019-03-04T05:04:16.475Z,33.32
2019-03-04T05:06:43.449Z,33.57
2019-03-04T05:09:10.444Z,33.84
2019-03-04T05:11:37.478Z,34.17
2019-03-04T05:14:04.401Z,34.50
2019-03-04T05:16:31.377Z,34.79
2019-03-04T05:18:58.500Z,35.11
2019-03-04T05:21:25.447Z,35.36
2019-03-04T05:23:52.400Z,35.65
2019-03-04T05:26:19.386Z,35.88
2019-03-04T05:28:46.387Z,36.13
2019-03-04T05:31:13.382Z,36.17
2019-03-04T05:33:40.323Z,36.29
2019-03-04T05:36:07.325Z,36.30
2019-03-04T05:38:34.453Z,36.32
2019-03-04T05:41:01.413Z,36.31
2019-03-04T05:43:28.374Z,36.31
2019-03-04T05:45:55.376Z,36.34
2019-03-04T05:48:22.357Z,36.08
2019-03-04T05:50:49.344Z,35.94
2019-03-04T05:53:16.272Z,35.89
2019-03-04T05:55:43.212Z,35.90
2019-03-04T05:58:10.222Z,35.98
2019-03-04T06:00:37.306Z,36.15
2019-03-04T06:03:04.311Z,36.32
2019-03-04T06:05:31.254Z,36.43
2019-03-04T06:07:59.150Z,36.46
2019-03-04T06:10:26.150Z,36.46
2019-03-04T06:12:53.106Z,36.53
2019-03-04T06:15:20.075Z,36.31
2019-03-04T06:17:47.075Z,36.21
2019-03-04T06:20:14.635Z,36.05
2019-03-04T06:22:41.656Z,36.16
2019-03-04T06:25:09.488Z,36.21
2019-03-04T06:27:36.479Z,36.34
2019-03-04T06:30:03.467Z,36.41
2019-03-04T06:32:30.414Z,36.38
2019-03-04T06:34:57.379Z,36.52
2019-03-04T06:37:24.449Z,36.53
2019-03-04T06:39:51.405Z,36.67
2019-03-04T06:42:18.378Z,36.78
2019-03-04T06:44:45.333Z,36.98
2019-03-04T06:47:12.276Z,37.07
2019-03-04T06:49:39.219Z,37.09
2019-03-04T06:52:06.213Z,37.22
2019-03-04T06:54:35.240Z,37.21
2019-03-04T06:57:02.178Z,37.31
2019-03-04T06:59:30.928Z,37.37
2019-03-04T07:01:57.873Z,37.43
2019-03-04T07:04:26.500Z,37.55
2019-03-04T07:06:53.447Z,37.70
2019-03-04T07:09:21.265Z,37.81
2019-03-04T07:11:48.191Z,37.86
2019-03-04T07:14:16.290Z,37.94
2019-03-04T07:16:43.409Z,37.95
2019-03-04T07:19:10.432Z,38.06
2019-03-04T07:21:37.396Z,38.07
2019-03-04T07:24:04.326Z,38.24
2019-03-04T07:26:31.339Z,38.30
2019-03-04T07:28:58.441Z,38.38
2019-03-04T07:31:25.410Z,38.49
2019-03-04T07:33:52.436Z,38.45
2019-03-04T07:36:19.379Z,38.52
2019-03-04T07:38:50.131Z,38.56
2019-03-04T07:41:17.240Z,38.60
2019-03-04T07:43:44.220Z,38.76
2019-03-04T07:46:11.172Z,38.98
2019-03-04T07:48:38.111Z,39.21
2019-03-04T07:51:20.173Z,39.46
2019-03-04T07:53:47.219Z,39.74
2019-03-04T07:56:14.207Z,40.03
2019-03-04T07:58:41.283Z,40.56
2019-03-04T08:01:08.291Z,41.23
2019-03-04T08:03:35.277Z,41.60
2019-03-04T08:06:02.281Z,41.88
2019-03-04T08:08:29.477Z,42.01
2019-03-04T08:10:57.896Z,42.07
2019-03-04T08:13:26.733Z,42.25
2019-03-04T08:15:53.702Z,42.32
2019-03-04T08:18:20.672Z,42.61
2019-03-04T08:20:47.790Z,42.66
2019-03-04T08:23:14.843Z,42.86
2019-03-04T08:25:41.848Z,43.08
2019-03-04T08:28:08.927Z,43.32
2019-03-04T08:30:35.871Z,43.49
2019-03-04T08:33:02.847Z,43.67
2019-03-04T08:35:29.792Z,43.66
2019-03-04T08:37:56.735Z,43.67
2019-03-04T08:40:23.680Z,43.86
2019-03-04T08:42:50.744Z,44.19
2019-03-04T08:45:17.800Z,44.57
2019-03-04T08:47:44.817Z,45.06
2019-03-04T08:50:11.753Z,45.41
2019-03-04T08:52:38.733Z,46.06
2019-03-04T08:55:05.804Z,47.14
2019-03-04T08:57:32.833Z,47.66
2019-03-04T08:59:59.802Z,48.33
2019-03-04T09:02:26.788Z,49.10
2019-03-04T09:04:53.845Z,49.97
2019-03-04T09:07:20.811Z,50.77
2019-03-04T09:09:48.207Z,52.01
2019-03-04T09:12:15.638Z,53.28
2019-03-04T09:14:43.044Z,54.31
2019-03-04T09:17:10.719Z,56.14
2019-03-04T09:19:37.979Z,57.09
2019-03-04T09:22:05.381Z,58.59
2019-03-04T09:24:32.840Z,60.54
2019-03-04T09:27:00.337Z,61.50
2019-03-04T09:29:27.745Z,62.47
2019-03-04T09:31:55.165Z,63.60
2019-03-04T09:34:22.559Z,63.64
2019-03-04T09:36:50.009Z,63.48
2019-03-04T09:39:16.958Z,63.99
2019-03-04T09:41:44.381Z,64.09
2019-03-04T09:44:11.914Z,65.26
2019-03-04T09:46:39.507Z,65.64
2019-03-04T09:49:06.927Z,66.04
2019-03-04T09:51:34.352Z,66.21
2019-03-04T09:54:01.777Z,66.70
2019-03-04T09:56:29.260Z,67.28
2019-03-04T09:58:56.671Z,67.34
2019-03-04T10:01:25.556Z,67.63
2019-03-04T10:06:53.706Z,68.25
2019-03-04T10:09:31.843Z,66.04
2019-03-04T10:15:20.462Z,59.16
2019-03-04T10:18:08.075Z,58.63
2019-03-04T10:20:54.248Z,57.48
2019-03-04T10:23:23.455Z,55.82
2019-03-04T10:25:56.676Z,55.13
2019-03-04T10:28:39.920Z,53.30
2019-03-04T10:31:14.971Z,51.62
2019-03-04T10:33:58.046Z,50.97
2019-03-04T10:36:28.151Z,50.86
2019-03-04T10:39:10.937Z,50.68
2019-03-04T10:41:45.983Z,50.43
2019-03-04T10:44:14.191Z,50.87
2019-03-04T10:46:51.226Z,51.40
2019-03-04T10:49:18.761Z,51.67
2019-03-04T10:51:46.161Z,51.88
2019-03-04T10:54:13.999Z,51.17
2019-03-04T10:56:42.451Z,51.49
2019-03-04T10:59:08.917Z,51.33
2019-03-04T11:01:36.448Z,51.78
2019-03-04T11:04:04.064Z,52.25
2019-03-04T11:06:31.531Z,52.89
2019-03-04T11:08:59.014Z,53.50
2019-03-04T11:11:29.770Z,53.66
2019-03-04T11:13:53.841Z,53.64
2019-03-04T11:16:21.248Z,53.93
2019-03-04T11:18:48.657Z,53.66
2019-03-04T11:21:16.215Z,53.40
2019-03-04T11:23:43.635Z,53.16
2019-03-04T11:26:11.107Z,52.92
2019-03-04T11:28:38.743Z,52.86
2019-03-04T11:31:06.195Z,52.82
2019-03-04T11:33:33.587Z,52.84
2019-03-04T11:36:01.027Z,52.98
2019-03-04T11:38:39.936Z,52.86
2019-03-04T11:41:07.371Z,52.57
2019-03-04T11:43:35.322Z,52.11
2019-03-04T11:46:02.943Z,51.17
2019-03-04T11:48:30.343Z,51.00
2019-03-04T11:50:57.757Z,51.24
2019-03-04T11:53:25.251Z,50.90
2019-03-04T11:55:53.526Z,50.41
2019-03-04T11:58:20.563Z,50.23
2019-03-04T12:03:44.321Z,49.65
2019-03-04T12:06:11.760Z,49.03
2019-03-04T12:08:39.242Z,48.59
2019-03-04T12:11:06.717Z,47.53
2019-03-04T12:13:34.195Z,47.22
2019-03-04T12:16:01.708Z,48.19
2019-03-04T12:18:29.174Z,48.97
2019-03-04T12:20:56.594Z,49.33
2019-03-04T12:23:24.043Z,50.15
2019-03-04T12:25:51.475Z,49.75
2019-03-04T12:28:19.091Z,48.82
2019-03-04T12:30:46.747Z,48.44
2019-03-04T12:33:14.142Z,47.07
2019-03-04T12:35:41.555Z,44.16
2019-03-04T12:38:09.087Z,43.74
2019-03-04T12:40:36.505Z,43.05
2019-03-04T12:43:04.427Z,44.49
2019-03-04T12:45:34.639Z,44.79
2019-03-04T12:47:59.360Z,45.74
2019-03-04T12:50:27.750Z,46.61
2019-03-04T12:52:55.141Z,47.22
2019-03-04T12:55:22.544Z,47.54
2019-03-04T12:57:50.065Z,47.42
2019-03-04T13:00:23.981Z,46.65
2019-03-04T13:02:57.468Z,46.21
2019-03-04T13:05:19.386Z,46.46
2019-03-04T13:07:46.844Z,46.10
2019-03-04T13:10:14.235Z,46.25
2019-03-04T13:12:41.652Z,45.87
2019-03-04T13:15:12.473Z,45.31
2019-03-04T13:17:39.868Z,45.58
2019-03-04T13:20:07.335Z,45.84
2019-03-04T13:22:34.722Z,46.60
2019-03-04T13:25:02.148Z,48.39
2019-03-04T13:27:29.550Z,48.33
2019-03-04T13:29:57.001Z,47.16
2019-03-04T13:32:24.405Z,46.90
2019-03-04T13:34:51.903Z,46.76
2019-03-04T13:37:19.536Z,46.29
2019-03-04T13:39:46.939Z,45.03
2019-03-04T13:42:14.339Z,44.70
2019-03-04T13:44:42.159Z,44.13
2019-03-04T13:47:09.624Z,45.34
2019-03-04T13:49:37.041Z,46.97
2019-03-04T13:52:04.466Z,46.62
2019-03-04T13:54:31.905Z,46.75
2019-03-04T13:56:59.314Z,46.52
2019-03-04T13:59:26.737Z,45.87
2019-03-04T14:01:54.138Z,44.84
2019-03-04T14:04:21.566Z,44.68
2019-03-04T14:06:48.975Z,44.61
2019-03-04T14:09:16.389Z,44.13
2019-03-04T14:11:43.831Z,45.31
2019-03-04T14:14:11.366Z,46.41
2019-03-04T14:16:38.785Z,46.94
2019-03-04T14:19:06.227Z,45.44
2019-03-04T14:21:33.654Z,45.81
2019-03-04T14:24:01.113Z,46.25
2019-03-04T14:26:28.571Z,44.52
2019-03-04T14:28:55.998Z,43.93
2019-03-04T14:31:23.406Z,44.19
2019-03-04T14:33:50.814Z,43.04
2019-03-04T14:36:18.281Z,43.49
2019-03-04T14:38:45.680Z,44.10
2019-03-04T14:41:13.077Z,44.46
2019-03-04T14:43:40.649Z,44.64
2019-03-04T14:46:08.086Z,44.79
2019-03-04T14:48:35.512Z,44.85
2019-03-04T14:51:02.904Z,43.58
2019-03-04T14:53:30.366Z,41.66
2019-03-04T14:55:58.590Z,40.44
2019-03-04T14:58:26.028Z,38.01
2019-03-04T15:00:53.435Z,35.87
2019-03-04T15:03:23.636Z,35.90
2019-03-04T15:05:48.309Z,35.28
2019-03-04T15:08:15.750Z,32.47
2019-03-04T15:10:42.714Z,30.68
2019-03-04T15:13:10.235Z,33.86
2019-03-04T15:15:37.604Z,36.78
2019-03-04T15:18:05.006Z,38.65
2019-03-04T15:20:33.853Z,40.16
2019-03-04T15:23:01.317Z,41.13
2019-03-04T15:25:30.663Z,41.75
2019-03-04T15:28:08.981Z,41.82
2019-03-04T15:30:37.408Z,37.80
2019-03-04T15:33:04.855Z,33.28
2019-03-04T15:35:32.250Z,32.83
2019-03-04T15:37:59.820Z,27.37
2019-03-04T15:40:27.765Z,24.24
2019-03-04T15:42:55.345Z,25.85
2019-03-04T15:45:22.771Z,22.04
2019-03-04T15:47:50.800Z,25.32
2019-03-04T15:50:18.218Z,23.54
2019-03-04T15:52:45.728Z,20.22
2019-03-04T15:55:13.253Z,20.03
2019-03-04T15:57:41.595Z,21.42
2019-03-04T16:00:12.587Z,19.58
2019-03-04T16:02:40.033Z,27.14
2019-03-04T16:05:09.245Z,21.09
2019-03-04T16:07:37.787Z,22.71
2019-03-04T16:10:11.754Z,19.41
2019-03-04T16:12:39.192Z,18.00
2019-03-04T16:15:06.965Z,18.64
2019-03-04T16:17:34.361Z,17.99
2019-03-04T16:20:01.343Z,17.29
2019-03-04T16:22:28.746Z,16.68
2019-03-04T16:24:56.204Z,16.64
2019-03-04T16:27:23.602Z,21.82
2019-03-04T16:29:51.084Z,18.93
2019-03-04T16:32:19.281Z,17.52
2019-03-04T16:34:46.799Z,16.92
2019-03-04T16:37:14.401Z,17.37
2019-03-04T16:39:41.902Z,18.05
2019-03-04T16:42:09.303Z,23.84
2019-03-04T16:44:36.759Z,28.28
2019-03-04T16:47:04.273Z,30.57
2019-03-04T16:49:31.687Z,31.56
2019-03-04T16:51:59.077Z,31.97
2019-03-04T16:54:27.690Z,32.96
2019-03-04T16:56:55.230Z,33.64
2019-03-04T16:59:22.727Z,34.45
2019-03-04T17:01:50.189Z,35.07
2019-03-04T17:04:17.603Z,35.32
2019-03-04T17:06:45.016Z,35.72
2019-03-04T17:09:14.263Z,36.21
2019-03-04T17:11:41.733Z,36.54
2019-03-04T17:14:09.142Z,36.71
2019-03-04T17:16:37.039Z,36.84
2019-03-04T17:19:04.424Z,37.08
2019-03-04T17:21:31.884Z,37.49
2019-03-04T17:23:59.866Z,37.84
2019-03-04T17:26:27.360Z,38.06
2019-03-04T17:28:56.461Z,38.35
2019-03-04T17:31:24.070Z,38.53
2019-03-04T17:33:51.465Z,38.75
2019-03-04T17:36:18.980Z,38.93
2019-03-04T17:38:46.389Z,39.16
2019-03-04T17:41:13.821Z,39.36
2019-03-04T17:43:41.242Z,39.56
2019-03-04T17:46:08.647Z,39.81
2019-03-04T17:48:36.499Z,40.31
2019-03-04T17:51:06.065Z,40.32
2019-03-04T17:53:31.376Z,40.64
2019-03-04T17:55:58.882Z,40.52
2019-03-04T17:58:26.611Z,40.84
2019-03-04T18:00:54.024Z,40.89
2019-03-04T18:03:21.416Z,40.97
2019-03-04T18:05:48.972Z,41.07
2019-03-04T18:08:16.371Z,41.10
2019-03-04T18:10:43.767Z,40.90
2019-03-04T18:13:11.188Z,41.07
2019-03-04T18:15:38.638Z,41.26
2019-03-04T18:18:06.031Z,41.56
2019-03-04T18:20:34.670Z,41.83
2019-03-04T18:23:01.066Z,42.02
2019-03-04T18:28:46.192Z,42.20
2019-03-04T18:31:13.642Z,42.28
2019-03-04T18:37:12.941Z,42.63
2019-03-04T18:42:43.854Z,43.01
2019-03-04T18:48:13.004Z,43.54
2019-03-04T18:50:40.506Z,44.23
2019-03-04T18:53:07.907Z,44.75
2019-03-04T18:55:37.339Z,45.01
2019-03-04T18:58:02.913Z,45.34
2019-03-04T19:00:30.327Z,45.36
2019-03-04T19:02:57.819Z,45.25
2019-03-04T19:05:25.237Z,44.79
2019-03-04T19:07:52.738Z,44.71
2019-03-04T19:10:20.140Z,44.64
2019-03-04T19:12:47.598Z,44.75
2019-03-04T19:15:15.111Z,44.83
2019-03-04T19:17:42.529Z,44.98
2019-03-04T19:20:14.608Z,45.15
2019-03-04T19:22:42.081Z,45.30
2019-03-04T19:25:09.495Z,45.45
2019-03-04T19:27:36.889Z,45.51
2019-03-04T19:30:12.839Z,45.51
2019-03-04T19:32:40.659Z,45.50
2019-03-04T19:35:09.020Z,45.55
2019-03-04T19:37:36.431Z,45.43
2019-03-04T19:40:06.098Z,45.50
2019-03-04T19:42:31.264Z,45.41
2019-03-04T19:44:58.696Z,45.29
2019-03-04T19:47:26.085Z,45.32
2019-03-04T19:49:53.486Z,45.23
2019-03-04T19:52:20.897Z,45.07
2019-03-04T19:54:48.323Z,44.98
2019-03-04T19:57:15.718Z,45.01
2019-03-04T19:59:43.159Z,45.04
2019-03-04T20:02:10.600Z,45.07
2019-03-04T20:04:37.985Z,45.10
2019-03-04T20:07:05.838Z,45.13
2019-03-04T20:09:33.299Z,45.19
2019-03-04T20:12:00.712Z,45.16
2019-03-04T20:14:28.122Z,45.13
2019-03-04T20:16:55.543Z,45.33
2019-03-04T20:19:22.958Z,45.24
2019-03-04T20:21:50.431Z,45.31
2019-03-04T20:24:18.080Z,45.36
2019-03-04T20:26:45.603Z,45.24
2019-03-04T20:29:13.061Z,45.25
2019-03-04T20:31:40.596Z,45.32
2019-03-04T20:34:08.017Z,45.45
2019-03-04T20:36:35.457Z,45.43
2019-03-04T20:39:02.981Z,45.41
2019-03-04T20:41:30.391Z,45.39
2019-03-04T20:43:57.803Z,45.39
2019-03-04T20:46:25.212Z,45.36
2019-03-04T20:48:52.616Z,45.23
2019-03-04T20:51:20.174Z,45.37
2019-03-04T20:53:47.582Z,45.41
2019-03-04T20:56:15.025Z,45.21
2019-03-04T20:58:42.435Z,45.36
2019-03-04T21:01:09.868Z,45.61
2019-03-04T21:03:38.704Z,45.84
2019-03-04T21:06:04.788Z,45.82
2019-03-04T21:08:32.247Z,45.81
2019-03-04T21:10:59.761Z,45.77
2019-03-04T21:13:35.271Z,45.95
2019-03-04T21:15:54.764Z,45.90
2019-03-04T21:18:22.224Z,46.04
2019-03-04T21:20:49.679Z,46.23
2019-03-04T21:23:17.071Z,46.41
2019-03-04T21:29:04.955Z,46.31
2019-03-04T21:31:33.922Z,46.27
2019-03-04T21:34:21.166Z,46.39
2019-03-04T21:36:51.139Z,46.49
2019-03-04T21:39:25.272Z,46.54
2019-03-04T21:42:04.686Z,46.55
2019-03-04T21:44:57.029Z,46.83
2019-03-04T21:47:26.499Z,46.78
2019-03-04T21:49:53.894Z,46.80
2019-03-04T21:52:37.136Z,46.90
2019-03-04T21:55:05.332Z,47.00
2019-03-04T21:57:33.772Z,46.90
2019-03-04T22:00:01.213Z,46.94
2019-03-04T22:02:30.540Z,46.97
2019-03-04T22:04:57.986Z,46.81
2019-03-04T22:07:25.389Z,46.91
2019-03-04T22:09:53.623Z,46.89
2019-03-04T22:12:21.023Z,46.90
2019-03-04T22:14:48.485Z,46.84
2019-03-04T22:17:15.936Z,47.09
2019-03-04T22:19:43.349Z,47.13
2019-03-04T22:22:10.734Z,46.99
2019-03-04T22:24:38.361Z,46.95
2019-03-04T22:27:05.781Z,46.96
2019-03-04T22:29:33.175Z,47.07
2019-03-04T22:32:00.560Z,47.06
2019-03-04T22:34:27.986Z,47.08
2019-03-04T22:36:55.451Z,47.18
2019-03-04T22:39:22.825Z,47.01
2019-03-04T22:41:50.362Z,46.84
2019-03-04T22:44:17.753Z,46.88
2019-03-04T22:46:45.177Z,46.78
2019-03-04T22:49:12.694Z,46.82
2019-03-04T22:51:40.134Z,46.79
2019-03-04T22:54:07.580Z,46.67
2019-03-04T22:56:34.998Z,46.62
2019-03-04T22:59:02.388Z,46.47
2019-03-04T23:01:30.613Z,46.42
2019-03-04T23:03:58.009Z,46.52
2019-03-04T23:06:27.343Z,46.58
2019-03-04T23:08:54.984Z,46.71
2019-03-04T23:11:23.315Z,46.79
2019-03-04T23:13:59.288Z,46.71
2019-03-04T23:16:26.740Z,46.62
2019-03-04T23:18:54.158Z,46.70
2019-03-04T23:21:21.552Z,46.67
2019-03-04T23:23:49.026Z,46.68
2019-03-04T23:26:16.437Z,46.86
2019-03-04T23:28:43.905Z,46.89
2019-03-04T23:31:11.290Z,46.86
2019-03-04T23:33:38.752Z,47.00
2019-03-04T23:36:06.545Z,46.94
2019-03-04T23:38:34.060Z,46.85
2019-03-04T23:41:01.451Z,46.88
2019-03-04T23:43:28.872Z,46.82
2019-03-04T23:45:56.289Z,46.73
2019-03-04T23:48:23.704Z,46.80
2019-03-04T23:50:51.123Z,46.78
2019-03-04T23:53:18.546Z,46.91
2019-03-04T23:55:45.964Z,46.97
2019-03-04T23:58:13.370Z,46.89
